Time;durP1;ratioP1;P1;durP2;ratioP2;P2;SDS_P1;SDS_P2;PMS_P1;PMS_P2;Temp;Humidity;BMP_temperature;BMP_pressure;BME280_temperature;BME280_humidity;BME280_pressure;Samples;Min_cycle;Max_cycle;Signal;HPM_P1;HPM_P2
2024/01/15 00:01:50;;;;;;;1.95;0.88;;;;;;;0.70;100.00;98477.81;6007019;23;20050;-84
2024/01/15 00:04:19;;;;;;;1.30;0.68;;;;;;;0.63;100.00;98463.44;5931621;23;20014;-84
2024/01/15 00:06:58;;;;;;;3.20;0.93;;;2.40;99.90;;;0.62;100.00;98465.19;5978114;23;20038;-83
2024/01/15 00:09:37;;;;;;;5.40;0.80;;;2.40;99.90;;;0.58;100.00;98459.31;5993376;23;20077;-84
2024/01/15 00:12:30;;;;;;;4.30;1.02;;;;;;;0.60;100.00;98459.22;6039998;23;20016;-85
2024/01/15 00:14:58;;;;;;;4.05;0.98;;;2.40;99.90;;;0.67;100.00;98459.81;5921465;23;20086;-83
2024/01/15 00:17:48;;;;;;;4.15;0.88;;;;;;;0.67;100.00;98454.63;5822551;23;20017;-83
2024/01/15 00:20:19;;;;;;;7.50;1.00;;;;;;;0.65;100.00;98446.09;5912685;22;20016;-83
2024/01/15 00:23:08;;;;;;;8.77;1.50;;;2.40;99.90;;;0.74;100.00;98450.88;6157428;22;20381;-85
2024/01/15 00:25:53;;;;;;;2.50;0.82;;;2.40;99.90;;;0.71;100.00;98445.81;6169448;22;20019;-83
2024/01/15 00:28:19;;;;;;;9.82;0.98;;;2.30;99.90;;;0.61;100.00;98447.97;6140149;22;20032;-84
2024/01/15 00:31:34;;;;;;;;;;;;;;;;;;;;;
2024/01/15 00:34:06;;;;;;;6.40;0.90;;;2.30;99.90;;;0.60;100.00;98434.19;6089605;23;20665;-82
2024/01/15 00:36:32;;;;;;;10.80;1.30;;;2.30;99.90;;;0.53;100.00;98427.56;5989003;23;20086;-84
2024/01/15 00:39:10;;;;;;;5.22;1.10;;;;;;;0.50;100.00;98426.88;6013433;23;20095;-83
2024/01/15 00:41:37;;;;;;;3.00;0.70;;;;;;;0.44;100.00;98429.72;6087387;23;20017;-84
2024/01/15 00:44:03;;;;;;;8.32;1.38;;;;;;;0.37;100.00;98423.97;6123593;23;20096;-81
2024/01/15 00:46:59;;;;;;;6.10;1.10;;;2.10;99.90;;;0.33;100.00;98427.59;6057271;23;20724;-83
2024/01/15 00:49:34;;;;;;;4.20;0.82;;;;;;;0.23;100.00;98419.34;6060772;23;20454;-83
2024/01/15 00:52:00;;;;;;;2.35;0.82;;;2.00;99.90;;;0.22;100.00;98414.22;6114850;23;20447;-82
2024/01/15 00:54:36;;;;;;;9.85;1.10;;;1.90;99.90;;;0.11;100.00;98401.72;6092049;23;20029;-82
2024/01/15 00:57:02;;;;;;;;;;;1.90;99.90;;;0.05;100.00;98399.41;6068360;23;20032;-83
2024/01/15 00:59:28;;;;;;;5.80;1.10;;;;;;;0.01;100.00;98397.84;6070059;23;19999;-83
2024/01/15 01:02:04;;;;;;;;;;;;;;;;;;;;;
2024/01/15 01:04:30;;;;;;;10.85;1.00;;;1.70;99.90;;;-0.07;100.00;98380.88;6068629;23;20084;-82
2024/01/15 01:06:56;;;;;;;8.82;1.02;;;1.70;99.90;;;-0.04;100.00;98369.59;6072548;23;20012;-83
2024/01/15 01:09:22;;;;;;;4.45;1.13;;;1.70;99.90;;;-0.01;100.00;98375.44;6065980;23;20013;-83
2024/01/15 01:11:58;;;;;;;6.93;1.40;;;;;;;-0.01;100.00;98366.84;6165401;22;20102;-82
2024/01/15 01:14:24;;;;;;;8.00;1.58;;;1.70;99.90;;;0.00;100.00;98353.03;6199128;22;20448;-83
2024/01/15 01:16:50;;;;;;;8.38;1.67;;;1.70;99.90;;;0.00;100.00;98350.44;6070884;22;20022;-82
2024/01/15 01:19:26;;;;;;;;;;;;;;;;;;;;;
2024/01/15 01:21:50;;;;;;;11.48;1.45;;;;;;;0.04;100.00;98341.63;6100045;23;20088;-82
2024/01/15 01:24:19;;;;;;;8.55;1.50;;;;;;;0.02;100.00;98346.03;6080609;23;20016;-84
2024/01/15 01:26:52;;;;;;;14.13;1.17;;;1.70;99.90;;;0.04;100.00;98336.44;6139970;23;20017;-84
2024/01/15 01:29:18;;;;;;;5.50;0.68;;;;;;;0.06;100.00;98329.47;6125003;23;20056;-83
2024/01/15 01:31:47;;;;;;;8.45;0.80;;;1.70;99.90;;;0.05;100.00;98329.56;6127211;23;20507;-82
2024/01/15 01:34:21;;;;;;;12.30;1.00;;;;;;;0.07;100.00;98323.41;6104492;23;20044;-83
2024/01/15 01:36:49;;;;;;;15.10;1.55;;;1.80;99.90;;;0.11;100.00;98319.78;6100390;23;20017;-81
2024/01/15 01:39:40;;;;;;;12.48;1.25;;;1.80;99.90;;;0.14;100.00;98314.47;6067656;23;20038;-82
2024/01/15 01:42:07;;;;;;;6.40;0.80;;;;;;;0.11;100.00;98317.19;6011785;23;20006;-83
2024/01/15 01:44:46;;;;;;;13.15;0.98;;;;;;;0.12;100.00;98298.16;6072362;23;20013;-84
2024/01/15 01:47:13;;;;;;;9.05;1.25;;;1.90;99.90;;;0.19;100.00;98304.78;6047431;23;20544;-82
2024/01/15 01:49:39;;;;;;;10.50;1.35;;;1.90;99.90;;;0.23;100.00;98304.63;6051240;23;20148;-81
2024/01/15 01:54:59;;;;;;;13.77;1.33;;;;;;;0.26;100.00;98287.22;6091968;23;20017;-82
2024/01/15 01:57:48;;;;;;;13.98;1.67;;;2.00;99.90;;;0.28;100.00;98276.78;6114678;23;20013;-82
2024/01/15 02:00:18;;;;;;;6.60;1.08;;;;;;;0.27;100.00;98264.75;6052114;23;20025;-81
2024/01/15 02:03:07;;;;;;;3.75;0.93;;;;;;;0.21;100.00;98265.88;6064008;23;20015;-83
2024/01/15 02:05:49;;;;;;;2.40;0.43;;;;;;;0.18;100.00;98261.66;6144762;23;20020;-83
2024/01/15 02:08:15;;;;;;;13.02;1.38;;;2.00;99.90;;;0.18;100.00;98253.06;6134069;23;20068;-81
2024/01/15 02:10:41;;;;;;;10.32;1.25;;;2.00;99.90;;;0.20;100.00;98249.50;6009895;23;20014;-82
2024/01/15 02:13:07;;;;;;;7.40;0.80;;;;;;;0.26;100.00;98250.13;6090723;23;20131;-81
2024/01/15 02:15:58;;;;;;;6.53;0.90;;;2.00;99.90;;;0.30;100.00;98233.56;6175295;23;20020;-83
2024/01/15 02:18:27;;;;;;;8.68;0.80;;;2.00;99.90;;;0.30;100.00;98234.41;6104442;23;20027;-84
2024/01/15 02:20:58;;;;;;;14.60;1.70;;;2.00;99.90;;;0.33;100.00;98229.09;6141152;22;20021;-81
2024/01/15 02:23:27;;;;;;;21.02;3.30;;;;;;;0.32;100.00;98229.16;5998957;23;20048;-82
2024/01/15 02:25:55;;;;;;;15.07;2.25;;;;;;;0.34;100.00;98225.56;6102383;23;20018;-83
2024/01/15 02:28:28;;;;;;;8.73;0.77;;;;;;;0.34;100.00;98216.97;6047474;23;20069;-81
2024/01/15 02:33:49;;;;;;;7.15;0.45;;;2.10;99.90;;;0.33;100.00;98212.72;6019143;23;20337;-84
2024/01/15 02:36:17;;;;;;;10.13;0.80;;;2.10;99.90;;;0.32;100.00;98200.69;5964443;23;20015;-82
2024/01/15 02:38:54;;;;;;;;;;;;;;;;;;;;;
2024/01/15 02:41:20;;;;;;;7.40;0.93;;;2.00;99.90;;;0.23;100.00;98185.56;5959951;23;20474;-81
2024/01/15 02:43:55;;;;;;;;;;;;;;;;;;;;;
2024/01/15 02:46:39;;;;;;;6.10;1.25;;;;;;;0.16;100.00;98175.50;6055428;23;20098;-82
2024/01/15 02:49:08;;;;;;;12.00;2.10;;;;;;;0.15;100.00;98172.97;6005107;23;20014;-82
2024/01/15 02:51:39;;;;;;;13.50;1.08;;;2.00;99.90;;;0.18;100.00;98168.50;6028949;23;20015;-82
2024/01/15 02:54:08;;;;;;;14.90;1.27;;;;;;;0.23;100.00;98157.09;6012271;23;20079;-82
2024/01/15 02:56:34;;;;;;;17.30;1.75;;;2.00;99.90;;;0.27;100.00;98167.25;6018846;23;20528;-83
2024/01/15 02:59:09;;;;;;;17.10;1.42;;;2.00;99.90;;;0.19;100.00;98159.84;5992691;23;20015;-81
2024/01/15 03:01:38;;;;;;;18.08;2.42;;;;;;;0.17;100.00;98165.97;6198806;22;20102;-83
2024/01/15 03:04:03;;;;;;;7.53;0.68;;;1.90;99.90;;;0.10;100.00;98155.06;6198137;22;20668;-83
2024/01/15 03:06:42;;;;;;;9.70;1.15;;;1.90;99.90;;;0.13;100.00;98156.66;6121097;22;20023;-82
2024/01/15 03:09:07;;;;;;;14.95;1.67;;;1.90;99.90;;;0.10;100.00;98154.22;6131088;22;20016;-82
2024/01/15 03:11:39;;;;;;;4.93;0.93;;;1.80;99.90;;;0.08;100.00;98151.69;6192564;22;20038;-82
2024/01/15 03:14:10;;;;;;;10.45;1.52;;;1.80;99.90;;;0.06;100.00;98143.16;6107059;22;20012;-83
2024/01/15 03:17:00;;;;;;;7.53;1.00;;;1.90;99.90;;;0.09;100.00;98143.03;6178305;22;20022;-82
2024/01/15 03:19:29;;;;;;;26.27;1.85;;;1.90;99.90;;;0.09;100.00;98142.22;6128853;22;20077;-84
2024/01/15 03:22:20;;;;;;;19.00;1.20;;;;;;;0.11;100.00;98136.06;6178795;22;20027;-82
2024/01/15 03:24:46;;;;;;;10.68;1.00;;;1.80;99.90;;;0.07;100.00;98147.44;6198732;22;20114;-83
2024/01/15 03:27:12;;;;;;;14.48;1.70;;;;;;;0.12;100.00;98132.53;6209199;22;20330;-82
2024/01/15 03:29:51;;;;;;;5.53;1.17;;;;;;;0.14;100.00;98128.13;6247571;22;20019;-81
2024/01/15 03:32:19;;;;;;;17.85;1.35;;;;;;;0.14;100.00;98125.56;6142328;22;20063;-82
2024/01/15 03:34:56;;;;;;;9.05;1.10;;;;;;;0.18;100.00;98116.75;6194774;22;20022;-83
2024/01/15 03:37:22;;;;;;;13.23;0.93;;;2.00;99.90;;;0.22;100.00;98121.75;6185460;22;20090;-81
2024/01/15 03:39:58;;;;;;;11.60;1.40;;;2.00;99.90;;;0.26;100.00;98124.16;6140467;22;20025;-82
2024/01/15 03:42:24;;;;;;;15.50;2.00;;;2.00;99.90;;;0.26;100.00;98119.00;6139495;22;20079;-83
2024/01/15 03:44:50;;;;;;;10.65;1.73;;;;;;;0.32;100.00;98115.25;6109924;22;20020;-83
2024/01/15 03:47:26;;;;;;;;;;;;;;;;;;;;;
2024/01/15 03:49:55;;;;;;;12.05;1.52;;;2.10;99.90;;;0.32;100.00;98113.50;6243255;22;20495;-82
2024/01/15 03:52:31;;;;;;;13.95;2.35;;;2.00;99.90;;;0.29;100.00;98108.47;6156999;22;20019;-82
2024/01/15 03:55:00;;;;;;;9.75;1.23;;;;;;;0.23;100.00;98120.88;6135220;22;20047;-82
2024/01/15 03:57:53;;;;;;;17.98;1.70;;;;;;;0.24;100.00;98126.00;6164791;22;20015;-82
2024/01/15 04:00:18;;;;;;;10.32;1.45;;;;;;;0.24;100.00;98126.00;6198116;22;20027;-82
2024/01/15 04:03:07;;;;;;;11.52;1.77;;;2.00;99.90;;;0.25;100.00;98150.13;6244173;22;20011;-83
2024/01/15 04:05:36;;;;;;;5.78;1.20;;;2.00;99.90;;;0.16;100.00;98144.44;6130561;22;20011;-82
2024/01/15 04:08:02;;;;;;;4.82;0.50;;;2.00;99.90;;;0.17;100.00;98124.56;6122860;22;20027;-81
2024/01/15 04:10:37;;;;;;;3.10;0.40;;;1.90;99.90;;;0.07;100.00;98118.16;6237284;22;20019;-81
2024/01/15 04:13:05;;;;;;;2.75;0.40;;;1.80;99.90;;;-0.06;100.00;98123.88;6159258;22;20044;-83
2024/01/15 04:15:31;;;;;;;0.98;0.22;;;1.70;99.90;;;-0.24;100.00;98120.38;6125037;22;20551;-82
2024/01/15 04:18:20;;;;;;;2.38;0.40;;;1.60;99.90;;;-0.21;100.00;98102.13;6077809;23;20069;-82
2024/01/15 04:20:48;;;;;;;10.23;0.40;;;1.70;99.90;;;-0.19;100.00;98103.78;6090367;22;20021;-83
2024/01/15 04:23:14;;;;;;;3.95;0.20;;;1.60;99.90;;;-0.29;100.00;98105.97;6106969;22;20012;-83
2024/01/15 04:25:50;;;;;;;2.40;0.35;;;1.60;99.90;;;-0.23;100.00;98100.53;6065939;22;20043;-81
2024/01/15 04:28:18;;;;;;;;;;;1.60;99.90;;;-0.26;100.00;98106.66;6192323;22;20213;-82
2024/01/15 04:30:56;;;;;;;6.38;0.63;;;1.60;99.90;;;-0.14;100.00;98122.53;6182368;22;20298;-82
2024/01/15 04:33:22;;;;;;;11.07;0.90;;;1.70;99.90;;;-0.11;100.00;98101.69;6106424;23;20016;-81
2024/01/15 04:36:01;;;;;;;15.60;2.00;;;1.70;99.90;;;-0.05;100.00;98116.94;6090125;22;20071;-83
2024/01/15 04:38:27;;;;;;;7.55;1.20;;;1.70;99.90;;;0.11;100.00;98114.50;6176505;22;20066;-82
2024/01/15 04:40:59;;;;;;;10.18;1.33;;;;;;;0.14;100.00;98107.44;6152963;22;20099;-84
2024/01/15 04:43:27;;;;;;;12.98;1.30;;;;;;;0.24;100.00;98119.94;6135158;22;20066;-82
2024/01/15 04:46:04;;;;;;;4.88;0.57;;;1.90;99.90;;;0.28;100.00;98111.13;6137850;22;20328;-83
2024/01/15 04:48:30;;;;;;;19.08;1.70;;;2.00;99.90;;;0.35;100.00;98117.72;6094933;22;20016;-82
2024/01/15 04:50:58;;;;;;;14.93;1.58;;;;;;;0.32;100.00;98113.50;6174037;22;20114;-82
2024/01/15 04:53:47;;;;;;;18.27;2.40;;;2.00;99.90;;;0.37;100.00;98113.31;6141250;22;20094;-83
2024/01/15 04:56:18;;;;;;;10.77;1.65;;;2.10;99.90;;;0.37;100.00;98113.31;6153144;22;20017;-82
2024/01/15 04:58:44;;;;;;;15.07;1.63;;;2.10;99.90;;;0.43;100.00;98118.19;6092991;22;20025;-83
2024/01/15 05:01:18;;;;;;;10.55;2.13;;;2.10;99.90;;;0.46;100.00;98106.88;6166518;22;20016;-82
2024/01/15 05:04:27;;;;;;;22.88;2.08;;;2.10;99.90;;;0.53;100.00;98116.00;6084077;22;20016;-82
2024/01/15 05:06:57;;;;;;;15.52;2.13;;;2.20;99.90;;;0.51;100.00;98110.06;6093959;22;20073;-83
2024/01/15 05:09:23;;;;;;;10.75;1.67;;;2.20;99.90;;;0.52;100.00;98115.19;6084502;23;20604;-80
2024/01/15 05:11:58;;;;;;;15.25;1.65;;;2.20;99.90;;;0.60;100.00;98115.66;6046094;22;20023;-83
2024/01/15 05:14:23;;;;;;;18.23;2.65;;;2.30;99.90;;;0.59;100.00;98126.06;6109623;23;20080;-83
2024/01/15 05:16:50;;;;;;;12.48;1.42;;;;;;;0.54;100.00;98105.59;6015459;23;20464;-83
2024/01/15 05:19:25;;;;;;;24.90;2.20;;;2.30;99.90;;;0.57;100.00;98114.97;6117240;23;20035;-83
2024/01/15 05:21:50;;;;;;;13.90;1.20;;;2.30;99.90;;;0.61;100.00;98112.13;6063205;23;20047;-81
2024/01/15 05:24:19;;;;;;;14.70;1.83;;;2.30;99.90;;;0.63;100.00;98126.75;6118308;23;20070;-81
2024/01/15 05:26:51;;;;;;;16.10;1.70;;;;;;;0.63;100.00;98121.56;6111782;23;20012;-83
2024/01/15 05:29:19;;;;;;;7.95;1.55;;;2.20;99.90;;;0.45;100.00;98131.06;6116358;23;20355;-82
2024/01/15 05:31:48;;;;;;;9.68;1.63;;;2.20;99.90;;;0.26;100.00;98113.81;6120533;23;20041;-82
2024/01/15 05:34:39;;;;;;;15.52;1.55;;;2.00;99.90;;;0.06;100.00;98101.78;6167284;23;20019;-82
2024/01/15 05:37:17;;;;;;;10.90;1.25;;;1.90;99.90;;;0.02;100.00;98114.91;6024252;23;20897;-82
2024/01/15 05:39:45;;;;;;;10.52;1.20;;;1.80;99.90;;;-0.17;100.00;98125.25;5998171;23;20034;-82
2024/01/15 05:42:12;;;;;;;11.70;1.23;;;1.80;99.90;;;-0.11;100.00;98099.97;6013804;23;20090;-82
2024/01/15 05:44:48;;;;;;;8.00;1.08;;;1.80;99.90;;;-0.02;100.00;98104.72;5984719;23;20484;-83
2024/01/15 05:47:13;;;;;;;10.10;1.35;;;1.70;99.90;;;-0.15;100.00;98097.56;6027626;23;20020;-82
2024/01/15 05:49:39;;;;;;;15.93;1.42;;;1.70;99.90;;;-0.15;100.00;98103.59;6019621;23;20010;-82
2024/01/15 05:52:16;;;;;;;17.27;1.70;;;;;;;-0.05;100.00;98111.78;6027882;23;20010;-82
2024/01/15 05:54:41;;;;;;;13.70;1.92;;;1.70;99.90;;;0.02;100.00;98117.50;6003814;23;20024;-81
2024/01/15 05:57:07;;;;;;;25.02;2.30;;;1.70;99.90;;;0.01;100.00;98106.31;5993472;23;20042;-83
2024/01/15 05:59:39;;;;;;;15.30;1.45;;;1.80;99.90;;;0.10;100.00;98116.25;5999842;23;20010;-82
2024/01/15 06:02:09;;;;;;;19.05;2.80;;;2.00;99.90;;;0.09;100.00;98122.34;6020302;23;20030;-82
2024/01/15 06:04:35;;;;;;;16.80;1.90;;;1.80;99.90;;;0.14;100.00;98125.56;5979828;23;20094;-83
2024/01/15 06:07:09;;;;;;;10.50;1.65;;;1.90;99.90;;;0.25;100.00;98121.63;6020611;23;20018;-82
2024/01/15 06:09:38;;;;;;;20.88;2.10;;;;;;;0.25;100.00;98127.66;6131913;23;20014;-82
2024/01/15 06:12:17;;;;;;;12.65;1.42;;;2.00;99.90;;;0.30;100.00;98132.59;6049160;23;20014;-83
2024/01/15 06:14:58;;;;;;;15.10;1.27;;;2.00;99.90;;;0.26;100.00;98125.91;6157191;22;20331;-82
2024/01/15 06:17:31;;;;;;;13.85;1.40;;;2.00;99.90;;;0.33;100.00;98128.13;6254693;22;20035;-82
2024/01/15 06:20:00;;;;;;;12.23;1.83;;;2.00;99.90;;;0.32;100.00;98128.19;6206483;22;20031;-83
2024/01/15 06:23:15;;;;;;;13.32;1.60;;;2.00;99.90;;;0.07;100.00;98134.50;6168857;22;20010;-83
2024/01/15 06:25:50;;;;;;;7.63;1.02;;;1.90;99.90;;;0.09;100.00;98124.94;6092984;23;20365;-82
2024/01/15 06:28:16;;;;;;;14.48;1.60;;;1.90;99.90;;;0.15;100.00;98119.47;6071794;23;20082;-81
2024/01/15 06:30:42;;;;;;;19.60;2.22;;;1.90;99.90;;;0.16;100.00;98123.75;6149015;23;20032;-81
2024/01/15 06:33:07;;;;;;;14.07;1.42;;;2.00;99.90;;;0.23;100.00;98137.22;6128729;23;20009;-81
2024/01/15 06:35:42;;;;;;;14.75;1.30;;;2.00;99.90;;;0.25;100.00;98127.66;6096371;23;20005;-82
2024/01/15 06:38:08;;;;;;;14.85;1.85;;;1.90;99.90;;;0.24;100.00;98135.47;6055269;23;20013;-82
2024/01/15 06:40:34;;;;;;;17.40;1.95;;;;;;;0.28;100.00;98142.19;6097774;23;20051;-82
2024/01/15 06:43:09;;;;;;;13.63;1.38;;;2.00;99.90;;;0.22;100.00;98153.69;6138380;23;20361;-82
2024/01/15 06:45:35;;;;;;;6.82;0.93;;;1.90;99.90;;;0.00;100.00;98192.63;6028062;23;20017;-84
2024/01/15 06:48:01;;;;;;;1.25;0.20;;;;;;;-0.61;100.00;98188.31;6123662;23;20283;-82
2024/01/15 06:51:10;;;;;;;0.77;0.28;;;1.30;99.90;;;-1.03;100.00;98186.59;6159762;23;20021;-81
2024/01/15 06:53:36;;;;;;;4.75;0.30;;;1.00;99.90;;;-1.12;100.00;98174.91;6128679;23;20072;-81
2024/01/15 06:56:02;;;;;;;7.38;1.00;;;1.00;99.90;;;-1.11;100.00;98167.97;6089473;23;20012;-82
2024/01/15 06:58:28;;;;;;;2.00;0.75;;;0.90;99.90;;;-1.07;100.00;98169.53;6063708;23;20021;-82
2024/01/15 07:01:00;;;;;;;2.28;0.30;;;0.90;99.90;;;-0.93;100.00;98177.59;6075969;23;20145;-83
2024/01/15 07:03:29;;;;;;;0.98;0.13;;;;;;;-0.84;100.00;98172.03;6059144;23;20044;-84
2024/01/15 07:06:23;;;;;;;1.67;0.30;;;1.10;99.90;;;-0.78;100.00;98164.94;6047313;23;20029;-84
2024/01/15 07:08:49;;;;;;;1.05;0.17;;;1.10;99.90;;;-0.67;100.00;98173.94;6084621;23;20036;-82
2024/01/15 07:11:38;;;;;;;4.18;1.00;;;1.20;99.90;;;-0.57;100.00;98173.53;6079169;23;20020;-81
2024/01/15 07:14:10;;;;;;;5.45;1.00;;;1.20;99.90;;;-0.46;100.00;98176.50;6035984;23;20052;-84
2024/01/15 07:17:00;;;;;;;3.17;0.50;;;1.30;99.90;;;-0.32;100.00;98175.94;6061519;23;20057;-85
2024/01/15 07:19:41;;;;;;;5.63;0.70;;;1.40;99.90;;;-0.24;100.00;98181.56;5939576;23;20011;-81
2024/01/15 07:22:40;;;;;;;3.47;0.70;;;1.40;99.90;;;-0.19;100.00;98183.97;5991434;23;20014;-85
2024/01/15 07:25:21;;;;;;;6.20;0.90;;;;;;;-0.09;100.00;98190.41;5959055;23;20019;-84
2024/01/15 07:27:59;;;;;;;8.13;0.55;;;;;;;-0.14;100.00;98197.56;5974072;23;20018;-84
2024/01/15 07:30:28;;;;;;;2.28;0.50;;;;;;;-0.13;99.92;98191.47;6008466;23;20034;-85
2024/01/15 07:33:01;;;;;;;2.22;0.40;;;1.50;99.90;;;-0.10;98.92;98202.53;5985357;23;20107;-82
2024/01/15 07:35:30;;;;;;;3.78;0.47;;;1.60;99.90;;;-0.09;96.64;98200.78;6045021;23;20042;-85
2024/01/15 07:38:11;;;;;;;2.75;0.50;;;;;;;-0.06;95.02;98213.59;5977145;23;20022;-82
2024/01/15 07:41:00;;;;;;;3.45;0.70;;;1.70;99.90;;;-0.03;92.28;98218.63;5980539;23;20023;-84
2024/01/15 07:43:29;;;;;;;2.72;0.22;;;;;;;-0.04;90.65;98214.38;5913249;23;20397;-83
2024/01/15 07:46:19;;;;;;;1.08;0.20;;;;;;;-0.05;89.27;98241.13;5924086;23;20019;-84
2024/01/15 07:48:45;;;;;;;0.32;0.20;;;;;;;-0.22;90.29;98237.53;5880031;23;20019;-84
2024/01/15 07:51:11;;;;;;;0.85;0.28;;;1.60;99.90;;;-0.32;91.28;98269.84;5929646;23;20181;-83
2024/01/15 07:53:36;;;;;;;1.58;0.40;;;1.50;99.90;;;-0.45;90.88;98245.41;5964173;23;20086;-84
2024/01/15 07:56:02;;;;;;;4.47;0.70;;;1.50;99.90;;;-0.43;89.71;98244.44;5988796;23;20013;-83
2024/01/15 07:58:37;;;;;;;3.72;0.47;;;1.40;99.90;;;-0.54;88.71;98238.00;5967186;23;20010;-83
2024/01/15 08:01:24;;;;;;;0.47;0.30;;;;;;;-0.55;86.76;98254.44;6010911;23;20046;-84
2024/01/15 08:03:57;;;;;;;;;;;1.30;99.90;;;-0.58;86.95;98265.75;6086137;23;20018;-82
2024/01/15 08:06:23;;;;;;;2.75;0.32;;;;;;;-0.58;86.53;98277.81;6046780;23;19908;-84
2024/01/15 08:08:49;;;;;;;1.00;0.20;;;1.30;99.90;;;-0.54;85.78;98281.97;6044478;23;20048;-84
2024/01/15 08:11:15;;;;;;;1.77;0.30;;;1.30;99.90;;;-0.63;85.81;98278.88;5966708;23;20015;-84
2024/01/15 08:13:52;;;;;;;0.85;0.17;;;1.30;99.90;;;-0.68;86.16;98287.69;5959943;23;20011;-84
2024/01/15 08:16:18;;;;;;;0.10;0.10;;;1.30;99.90;;;-0.67;85.59;98272.13;5961650;23;20490;-84
2024/01/15 08:18:55;;;;;;;1.48;0.32;;;1.20;99.90;;;-0.73;85.02;98298.22;5974468;23;20018;-82
2024/01/15 08:21:21;;;;;;;2.08;0.17;;;1.20;99.90;;;-0.74;85.41;98293.09;6029058;23;20021;-82
2024/01/15 08:23:47;;;;;;;4.18;1.13;;;1.20;99.90;;;-0.75;86.07;98294.84;6112199;22;20059;-84
2024/01/15 08:26:37;;;;;;;2.00;0.43;;;;;;;-0.78;85.82;98292.38;6111503;22;20074;-83
2024/01/15 08:29:05;;;;;;;3.75;0.75;;;1.20;99.90;;;-0.69;85.35;98304.09;6128342;22;20023;-84
2024/01/15 08:31:31;;;;;;;1.30;0.38;;;1.20;99.90;;;-0.73;85.61;98299.97;6144538;22;20009;-82
2024/01/15 08:34:08;;;;;;;2.90;0.70;;;;;;;-0.72;84.23;98310.22;6142328;22;20488;-83
2024/01/15 08:36:36;;;;;;;0.85;0.35;;;1.20;99.90;;;-0.77;84.06;98316.50;6176681;22;20018;-82
2024/01/15 08:39:11;;;;;;;1.40;0.50;;;1.20;99.90;;;-0.85;83.63;98324.53;6171124;22;20082;-81
2024/01/15 08:41:37;;;;;;;2.45;0.68;;;1.10;99.90;;;-0.82;83.29;98308.91;6132700;22;20024;-83
2024/01/15 08:44:10;;;;;;;6.55;0.40;;;1.10;99.90;;;-0.87;83.45;98326.31;6125697;22;20037;-83
2024/01/15 08:46:43;;;;;;;3.03;0.82;;;1.10;99.90;;;-0.86;83.18;98318.53;6155514;22;20071;-83
2024/01/15 08:49:19;;;;;;;0.95;0.30;;;1.10;99.90;;;-0.85;82.57;98329.69;6163688;22;20022;-82
2024/01/15 08:51:45;;;;;;;1.48;0.50;;;;;;;-0.85;83.71;98334.84;6144677;22;20015;-81
2024/01/15 08:54:11;;;;;;;1.67;0.10;;;;;;;-0.89;84.16;98325.53;6177420;22;20483;-83
2024/01/15 08:56:48;;;;;;;4.13;0.32;;;1.10;99.90;;;-0.88;84.92;98324.66;6203256;22;20097;-83
2024/01/15 08:59:24;;;;;;;2.25;0.60;;;1.00;99.90;;;-0.85;84.97;98332.28;6148668;22;20030;-84
2024/01/15 09:01:50;;;;;;;3.08;0.20;;;;;;;-0.88;85.00;98341.00;6156877;22;20012;-82
2024/01/15 09:04:45;;;;;;;1.17;0.20;;;1.10;99.90;;;-0.87;84.68;98336.66;6167300;22;20025;-82
2024/01/15 09:07:11;;;;;;;0.40;0.20;;;;;;;-0.92;84.70;98336.00;6089135;22;20185;-82
2024/01/15 09:09:37;;;;;;;2.83;0.77;;;1.00;99.90;;;-0.92;85.21;98338.59;6169393;22;20025;-82
2024/01/15 09:12:09;;;;;;;2.30;0.50;;;;;;;-0.94;85.18;98341.22;6172625;22;20015;-83
2024/01/15 09:14:38;;;;;;;3.00;0.35;;;1.00;99.90;;;-0.88;86.39;98345.31;6190722;22;20371;-83
2024/01/15 09:17:05;;;;;;;2.70;0.47;;;;;;;-0.89;86.33;98348.78;6094234;22;20072;-83
2024/01/15 09:19:31;;;;;;;3.28;0.80;;;;;;;-0.90;86.53;98354.88;6162620;23;20040;-83
2024/01/15 09:22:09;;;;;;;4.72;0.77;;;1.00;99.90;;;-0.93;86.51;98342.06;6201699;22;20036;-84
2024/01/15 09:24:35;;;;;;;1.10;0.43;;;1.00;99.90;;;-0.92;86.00;98354.09;6153995;22;20026;-84
2024/01/15 09:27:25;;;;;;;3.63;0.68;;;1.00;99.90;;;-0.95;85.68;98359.34;6176218;22;20667;-82
2024/01/15 09:29:55;;;;;;;3.50;0.90;;;1.00;99.90;;;-0.93;85.37;98362.72;6046991;23;20118;-83
2024/01/15 09:32:36;;;;;;;2.75;0.20;;;1.10;99.90;;;-0.89;85.46;98370.28;6084010;23;20352;-83
2024/01/15 09:35:11;;;;;;;2.58;0.30;;;1.00;99.90;;;-0.97;85.63;98377.53;6101185;23;20024;-82
2024/01/15 09:37:37;;;;;;;2.25;0.40;;;1.00;99.90;;;-0.95;85.87;98393.81;6081583;23;20013;-83
2024/01/15 09:40:19;;;;;;;0.68;0.40;;;1.00;99.90;;;-0.93;85.88;98384.25;6148760;23;20489;-83
2024/01/15 09:43:10;;;;;;;0.75;0.40;;;;;;;-0.92;85.83;98385.94;6049644;23;20013;-83
2024/01/15 09:45:37;;;;;;;3.65;0.45;;;;;;;-1.01;85.41;98394.03;6107741;23;20490;-83
2024/01/15 09:48:03;;;;;;;1.75;0.30;;;1.00;99.90;;;-0.97;86.04;98387.84;6086535;23;20017;-83
2024/01/15 09:50:58;;;;;;;1.30;0.20;;;1.00;99.90;;;-1.01;85.86;98403.53;6093972;23;20008;-82
2024/01/15 09:53:47;;;;;;;1.08;0.35;;;;;;;-1.03;86.23;98413.91;6043498;23;20041;-83
2024/01/15 09:56:14;;;;;;;1.75;0.65;;;;;;;-1.03;86.66;98401.00;5960529;23;20019;-83
2024/01/15 09:58:42;;;;;;;3.58;0.88;;;0.90;99.90;;;-1.00;86.72;98410.34;5940914;23;20131;-82
2024/01/15 10:01:19;;;;;;;0.95;0.20;;;;;;;-0.99;86.81;98410.31;5932093;23;20047;-84
2024/01/15 10:03:58;;;;;;;0.63;0.52;;;0.90;99.90;;;-1.09;85.73;98408.94;5943454;23;20024;-83
2024/01/15 10:06:36;;;;;;;1.83;0.85;;;0.90;99.90;;;-1.15;85.94;98412.59;5911517;23;20011;-82
2024/01/15 10:09:18;;;;;;;;;;;;;;;;;;;;;
2024/01/15 10:11:45;;;;;;;0.60;0.30;;;0.80;99.90;;;-1.18;86.38;98433.38;6047325;23;20479;-84
2024/01/15 10:14:18;;;;;;;1.05;0.20;;;0.80;99.90;;;-1.15;87.12;98420.34;6005836;23;20036;-82
2024/01/15 10:16:59;;;;;;;1.80;0.50;;;;;;;-1.18;86.44;98424.78;6028511;23;20010;-84
2024/01/15 10:19:27;;;;;;;0.90;0.32;;;0.70;99.90;;;-1.26;86.71;98431.03;6052039;23;20018;-83
2024/01/15 10:21:54;;;;;;;1.33;0.80;;;0.70;99.90;;;-1.27;87.40;98418.22;6029288;23;20463;-83
2024/01/15 10:24:29;;;;;;;0.65;0.30;;;0.80;99.90;;;-1.27;87.70;98416.47;6060323;23;20022;-83
2024/01/15 10:27:12;;;;;;;1.88;0.40;;;0.70;99.90;;;-1.24;88.15;98443.91;6103111;23;20090;-81
2024/01/15 10:29:47;;;;;;;3.60;0.80;;;;;;;-1.27;88.44;98439.72;6050548;23;20105;-84
2024/01/15 10:32:16;;;;;;;3.35;0.75;;;0.60;99.90;;;-1.36;88.14;98434.00;6027232;23;20029;-83
2024/01/15 10:34:57;;;;;;;1.17;0.38;;;0.60;99.90;;;-1.38;88.32;98436.66;6184610;22;20035;-82
2024/01/15 10:37:51;;;;;;;2.10;0.90;;;;;;;-1.48;87.59;98443.88;6116296;23;20016;-83
2024/01/15 10:40:19;;;;;;;7.13;0.63;;;0.50;99.90;;;-1.50;87.38;98442.22;6165611;22;20075;-81
2024/01/15 10:42:56;;;;;;;1.33;0.50;;;;;;;-1.46;87.40;98454.97;6203804;22;20025;-83
2024/01/15 10:45:32;;;;;;;1.17;0.30;;;0.50;99.90;;;-1.53;87.18;98447.50;6209126;22;20011;-83
2024/01/15 10:47:58;;;;;;;1.98;0.45;;;;;;;-1.56;86.25;98445.84;6121028;22;20557;-82
2024/01/15 10:50:25;;;;;;;2.55;0.50;;;;;;;-1.56;87.05;98465.66;6086352;22;20044;-84
2024/01/15 10:53:01;;;;;;;5.35;0.93;;;0.40;99.90;;;-1.60;86.33;98464.09;6189550;22;20451;-83
2024/01/15 10:55:41;;;;;;;;;;;0.40;99.90;;;-1.63;86.55;98467.63;6170469;22;20421;-84
2024/01/15 10:58:08;;;;;;;1.15;0.30;;;;;;;-1.67;87.05;98460.88;6176474;22;20338;-83
2024/01/15 11:00:51;;;;;;;6.43;0.60;;;;;;;-1.67;86.88;98478.94;6187130;22;20098;-84
2024/01/15 11:03:26;;;;;;;4.03;0.50;;;0.30;99.90;;;-1.72;86.49;98470.50;6211742;22;20036;-85
2024/01/15 11:06:21;;;;;;;5.13;0.70;;;;;;;-1.73;85.74;98477.41;6167269;22;20366;-83
2024/01/15 11:08:57;;;;;;;0.30;0.20;;;;;;;-1.69;86.46;98476.38;6200336;22;20469;-84
2024/01/15 11:11:25;;;;;;;1.83;0.30;;;;;;;-1.65;86.37;98480.56;6129208;22;20103;-83
2024/01/15 11:13:52;;;;;;;4.60;1.00;;;0.30;99.90;;;-1.60;86.02;98498.47;6141415;22;20751;-83
2024/01/15 11:16:18;;;;;;;2.33;0.90;;;;;;;-1.62;85.59;98492.53;6100640;23;20086;-85
2024/01/15 11:19:44;;;;;;;;;;;;;;;;;;;;;
2024/01/15 11:22:53;;;;;;;2.08;0.40;;;0.30;99.90;;;-1.76;85.01;98492.13;6079898;23;21573;-83
2024/01/15 11:25:20;;;;;;;2.10;0.60;;;0.30;99.90;;;-1.76;86.26;98508.44;6062837;23;20029;-83
2024/01/15 11:28:00;;;;;;;3.75;0.75;;;0.20;99.90;;;-1.80;86.33;98521.50;6075438;23;20914;-84
2024/01/15 11:30:52;;;;;;;2.83;0.80;;;;;;;-1.82;86.24;98523.28;6063278;23;20406;-84